createdAt,value
2023-01-15T00:01:30.201Z,100.00
2023-01-15T00:03:59.606Z,100.00
2023-01-15T00:06:28.504Z,100.00
2023-01-15T00:08:56.184Z,100.00
2023-01-15T00:11:23.943Z,100.00
2023-01-15T00:13:51.704Z,100.00
2023-01-15T00:16:23.230Z,100.00
2023-01-15T00:18:52.427Z,100.00
2023-01-15T00:21:21.303Z,100.00
2023-01-15T00:24:07.463Z,100.00
2023-01-15T00:26:54.265Z,100.00
2023-01-15T00:29:22.665Z,100.00
2023-01-15T00:32:02.913Z,100.00
2023-01-15T00:34:31.623Z,100.00
2023-01-15T00:36:59.221Z,100.00
2023-01-15T00:39:27.224Z,100.00
2023-01-15T00:41:55.711Z,100.00
2023-01-15T00:44:22.979Z,100.00
2023-01-15T00:46:52.183Z,100.00
2023-01-15T00:49:21.628Z,100.00
2023-01-15T00:51:50.236Z,100.00
2023-01-15T00:54:18.138Z,100.00
2023-01-15T00:56:45.810Z,100.00
2023-01-15T00:59:13.145Z,100.00
2023-01-15T01:01:40.382Z,100.00
2023-01-15T01:04:07.865Z,100.00
2023-01-15T01:06:35.462Z,100.00
2023-01-15T01:09:02.835Z,100.00
2023-01-15T01:11:34.585Z,100.00
2023-01-15T01:14:02.918Z,100.00
2023-01-15T01:16:36.115Z,100.00
2023-01-15T01:19:09.147Z,100.00
2023-01-15T01:21:37.704Z,100.00
2023-01-15T01:24:05.065Z,100.00
2023-01-15T01:26:32.187Z,100.00
2023-01-15T01:28:59.315Z,100.00
2023-01-15T01:31:26.709Z,100.00
2023-01-15T01:33:56.663Z,100.00
2023-01-15T01:36:33.148Z,100.00
2023-01-15T01:39:01.468Z,100.00
2023-01-15T01:41:29.627Z,100.00
2023-01-15T01:44:03.150Z,100.00
2023-01-15T01:46:33.148Z,100.00
2023-01-15T01:49:13.145Z,100.00
2023-01-15T01:52:09.625Z,100.00
2023-01-15T01:54:38.912Z,100.00
2023-01-15T01:57:08.985Z,100.00
2023-01-15T01:59:38.425Z,100.00
2023-01-15T02:02:06.553Z,100.00
2023-01-15T02:04:34.422Z,100.00
2023-01-15T02:07:02.445Z,100.00
2023-01-15T02:09:29.789Z,100.00
2023-01-15T02:12:14.423Z,100.00
2023-01-15T02:15:03.385Z,100.00
2023-01-15T02:17:43.622Z,100.00
2023-01-15T02:20:29.303Z,100.00
2023-01-15T02:23:04.352Z,100.00
2023-01-15T02:25:42.928Z,100.00
2023-01-15T02:28:14.193Z,100.00
2023-01-15T02:30:46.427Z,100.00
2023-01-15T02:33:26.905Z,100.00
2023-01-15T02:36:01.234Z,100.00
2023-01-15T02:38:36.584Z,100.00
2023-01-15T02:41:07.712Z,100.00
2023-01-15T02:43:40.183Z,100.00
2023-01-15T02:46:09.414Z,100.00
2023-01-15T02:48:39.493Z,100.00
2023-01-15T02:51:23.556Z,100.00
2023-01-15T02:53:55.419Z,100.00
2023-01-15T02:56:28.540Z,100.00
2023-01-15T02:59:01.173Z,100.00
2023-01-15T03:01:34.191Z,100.00
2023-01-15T03:04:07.591Z,100.00
2023-01-15T03:07:05.250Z,100.00
2023-01-15T03:09:34.737Z,100.00
2023-01-15T03:12:16.533Z,100.00
2023-01-15T03:15:39.252Z,100.00
2023-01-15T03:18:10.112Z,100.00
2023-01-15T03:20:38.612Z,100.00
2023-01-15T03:23:11.494Z,100.00
2023-01-15T03:25:48.056Z,100.00
2023-01-15T03:28:20.101Z,100.00
2023-01-15T03:30:48.593Z,100.00
2023-01-15T03:33:15.575Z,100.00
2023-01-15T03:35:50.145Z,100.00
2023-01-15T03:38:46.947Z,100.00
2023-01-15T03:41:43.668Z,100.00
2023-01-15T03:44:20.011Z,100.00
2023-01-15T03:47:31.572Z,100.00
2023-01-15T03:50:23.579Z,100.00
2023-01-15T03:53:09.739Z,100.00
2023-01-15T03:55:52.691Z,100.00
2023-01-15T03:58:45.573Z,100.00
2023-01-15T04:01:19.414Z,100.00
2023-01-15T04:03:50.069Z,100.00
2023-01-15T04:06:19.174Z,100.00
2023-01-15T04:08:47.573Z,100.00
2023-01-15T04:11:24.595Z,100.00
2023-01-15T04:13:54.960Z,100.00
2023-01-15T04:16:37.411Z,100.00
2023-01-15T04:19:04.157Z,100.00
2023-01-15T04:21:34.141Z,100.00
2023-01-15T04:24:00.852Z,100.00
2023-01-15T04:26:27.751Z,100.00
2023-01-15T04:28:55.422Z,100.00
2023-01-15T04:31:22.420Z,100.00
2023-01-15T04:33:49.375Z,100.00
2023-01-15T04:36:16.136Z,100.00
2023-01-15T04:38:43.029Z,100.00
2023-01-15T04:41:29.059Z,100.00
2023-01-15T04:44:08.417Z,100.00
2023-01-15T04:46:46.315Z,100.00
2023-01-15T04:49:16.640Z,100.00
2023-01-15T04:51:44.106Z,100.00
2023-01-15T04:54:12.754Z,100.00
2023-01-15T04:56:50.374Z,100.00
2023-01-15T04:59:21.493Z,100.00
2023-01-15T05:02:02.680Z,100.00
2023-01-15T05:04:32.040Z,100.00
2023-01-15T05:06:59.037Z,100.00
2023-01-15T05:09:25.814Z,100.00
2023-01-15T05:11:52.686Z,100.00
2023-01-15T05:14:19.528Z,100.00
2023-01-15T05:16:46.320Z,100.00
2023-01-15T05:19:13.405Z,100.00
2023-01-15T05:21:42.575Z,100.00
2023-01-15T05:24:13.906Z,100.00
2023-01-15T05:26:41.428Z,100.00
2023-01-15T05:29:08.596Z,100.00
2023-01-15T05:31:35.760Z,100.00
2023-01-15T05:34:03.389Z,100.00
2023-01-15T05:36:32.188Z,100.00
2023-01-15T05:39:02.512Z,100.00
2023-01-15T05:41:49.241Z,100.00
2023-01-15T05:44:25.859Z,100.00
2023-01-15T05:46:56.252Z,100.00
2023-01-15T05:49:26.321Z,100.00
2023-01-15T05:51:54.218Z,100.00
2023-01-15T05:54:26.759Z,100.00
2023-01-15T05:56:53.949Z,100.00
2023-01-15T05:59:24.020Z,100.00
2023-01-15T06:01:51.637Z,100.00
2023-01-15T06:04:21.389Z,100.00
2023-01-15T06:06:50.416Z,100.00
2023-01-15T06:09:18.348Z,100.00
2023-01-15T06:11:46.020Z,100.00
2023-01-15T06:14:13.374Z,100.00
2023-01-15T06:16:41.565Z,100.00
2023-01-15T06:19:11.135Z,100.00
2023-01-15T06:21:38.429Z,100.00
2023-01-15T06:24:06.105Z,100.00
2023-01-15T06:26:33.954Z,100.00
2023-01-15T06:29:01.145Z,100.00
2023-01-15T06:31:28.237Z,100.00
2023-01-15T06:33:56.593Z,100.00
2023-01-15T06:36:27.322Z,100.00
2023-01-15T06:38:55.382Z,100.00
2023-01-15T06:41:44.111Z,100.00
2023-01-15T06:44:32.904Z,100.00
2023-01-15T06:47:22.347Z,100.00
2023-01-15T06:49:55.442Z,100.00
2023-01-15T06:52:24.601Z,100.00
2023-01-15T06:54:52.440Z,100.00
2023-01-15T06:57:20.377Z,100.00
2023-01-15T06:59:48.659Z,100.00
2023-01-15T07:02:16.259Z,100.00
2023-01-15T07:04:43.619Z,100.00
2023-01-15T07:07:10.903Z,100.00
2023-01-15T07:09:38.102Z,100.00
2023-01-15T07:12:05.303Z,100.00
2023-01-15T07:14:33.296Z,100.00
2023-01-15T07:17:00.445Z,100.00
2023-01-15T07:19:28.107Z,100.00
2023-01-15T07:21:55.238Z,100.00
2023-01-15T07:24:22.463Z,100.00
2023-01-15T07:26:52.025Z,100.00
2023-01-15T07:29:19.706Z,100.00
2023-01-15T07:31:46.982Z,100.00
2023-01-15T07:34:14.259Z,100.00
2023-01-15T07:36:41.548Z,100.00
2023-01-15T07:39:10.542Z,100.00
2023-01-15T07:41:56.753Z,100.00
2023-01-15T07:44:43.790Z,100.00
2023-01-15T07:47:43.544Z,100.00
2023-01-15T07:50:18.271Z,100.00
2023-01-15T07:52:45.491Z,100.00
2023-01-15T07:55:13.736Z,100.00
2023-01-15T07:57:42.430Z,100.00
2023-01-15T08:00:15.556Z,100.00
2023-01-15T08:02:42.665Z,100.00
2023-01-15T08:05:12.582Z,100.00
2023-01-15T08:07:41.383Z,100.00
2023-01-15T08:10:10.439Z,100.00
2023-01-15T08:12:57.531Z,100.00
2023-01-15T08:15:26.041Z,100.00
2023-01-15T08:17:53.702Z,100.00
2023-01-15T08:20:26.385Z,100.00
2023-01-15T08:22:54.023Z,100.00
2023-01-15T08:25:24.192Z,100.00
2023-01-15T08:27:51.707Z,100.00
2023-01-15T08:30:22.344Z,100.00
2023-01-15T08:32:49.938Z,100.00
2023-01-15T08:35:17.220Z,100.00
2023-01-15T08:37:44.676Z,100.00
2023-01-15T08:40:12.260Z,100.00
2023-01-15T08:42:39.671Z,100.00
2023-01-15T08:45:07.467Z,100.00
2023-01-15T08:47:34.419Z,100.00
2023-01-15T08:50:01.563Z,100.00
2023-01-15T08:52:28.431Z,100.00
2023-01-15T08:54:57.075Z,98.95
2023-01-15T08:57:24.342Z,98.06
2023-01-15T08:59:51.467Z,94.62
2023-01-15T09:02:18.748Z,93.98
2023-01-15T09:04:46.052Z,92.92
2023-01-15T09:07:13.362Z,90.34
2023-01-15T09:09:40.906Z,88.50
2023-01-15T09:12:08.020Z,88.32
2023-01-15T09:14:58.728Z,88.57
2023-01-15T09:17:22.422Z,89.27
2023-01-15T09:19:49.539Z,87.37
2023-01-15T09:22:16.668Z,88.39
2023-01-15T09:24:44.139Z,91.14
2023-01-15T09:27:15.549Z,89.24
2023-01-15T09:29:42.847Z,83.67
2023-01-15T09:32:10.796Z,82.56
2023-01-15T09:34:37.939Z,79.04
2023-01-15T09:37:05.141Z,73.86
2023-01-15T09:39:32.505Z,71.98
2023-01-15T09:42:43.538Z,68.07
2023-01-15T09:45:23.089Z,66.66
2023-01-15T09:48:19.007Z,63.82
2023-01-15T09:51:16.126Z,63.68
2023-01-15T09:54:41.937Z,61.55
2023-01-15T09:57:13.307Z,59.40
2023-01-15T09:59:44.991Z,59.19
2023-01-15T10:02:27.221Z,59.05
2023-01-15T10:05:05.233Z,59.31
2023-01-15T10:07:58.840Z,59.70
2023-01-15T10:10:34.203Z,62.17
2023-01-15T10:13:12.187Z,65.88
2023-01-15T10:15:46.890Z,71.25
2023-01-15T10:18:25.308Z,70.84
2023-01-15T10:21:11.310Z,71.86
2023-01-15T10:24:15.379Z,71.64
2023-01-15T10:26:56.347Z,73.51
2023-01-15T10:29:35.648Z,77.11
2023-01-15T10:32:25.699Z,74.23
2023-01-15T10:35:14.902Z,77.06
2023-01-15T10:37:50.746Z,78.01
2023-01-15T10:40:44.823Z,80.51
2023-01-15T10:43:24.421Z,80.89
2023-01-15T10:45:59.229Z,80.09
2023-01-15T10:51:24.346Z,78.55
2023-01-15T10:53:59.144Z,79.89
2023-01-15T10:56:47.661Z,78.31
2023-01-15T10:59:31.324Z,77.50
2023-01-15T11:02:00.371Z,77.27
2023-01-15T11:04:32.927Z,75.38
2023-01-15T11:07:01.410Z,76.63
2023-01-15T11:09:36.290Z,74.99
2023-01-15T11:12:23.722Z,72.00
2023-01-15T11:15:09.242Z,71.63
2023-01-15T11:18:00.233Z,70.54
2023-01-15T11:20:34.921Z,69.63
2023-01-15T11:23:11.802Z,70.01
2023-01-15T11:25:48.522Z,71.29
2023-01-15T11:28:16.611Z,71.64
2023-01-15T11:30:45.490Z,72.28
2023-01-15T11:33:28.280Z,72.03
2023-01-15T11:36:01.185Z,75.43
2023-01-15T11:38:43.533Z,73.37
2023-01-15T11:41:50.684Z,75.49
2023-01-15T11:44:42.286Z,76.76
2023-01-15T11:47:33.008Z,77.37
2023-01-15T11:50:18.856Z,77.17
2023-01-15T11:52:51.320Z,75.68
2023-01-15T11:55:21.697Z,76.41
2023-01-15T11:57:51.322Z,76.88
2023-01-15T12:00:24.122Z,75.80
2023-01-15T12:02:55.323Z,76.03
2023-01-15T12:05:27.563Z,75.42
2023-01-15T12:07:58.457Z,75.16
2023-01-15T12:10:50.363Z,75.56
2023-01-15T12:13:36.042Z,76.65
2023-01-15T12:16:28.214Z,80.80
2023-01-15T12:18:59.310Z,80.04
2023-01-15T12:21:55.887Z,81.54
2023-01-15T12:24:41.580Z,81.43
2023-01-15T12:27:36.443Z,80.52
2023-01-15T12:30:19.331Z,81.16
2023-01-15T12:33:00.923Z,83.23
2023-01-15T12:35:32.292Z,85.74
2023-01-15T12:38:17.908Z,87.43
2023-01-15T12:41:02.362Z,91.34
2023-01-15T12:43:48.207Z,90.25
2023-01-15T12:46:21.808Z,88.66
2023-01-15T12:49:15.004Z,88.02
2023-01-15T12:51:57.969Z,90.20
2023-01-15T12:54:34.603Z,89.54
2023-01-15T12:57:15.324Z,90.42
2023-01-15T13:00:15.092Z,91.11
2023-01-15T13:03:16.977Z,91.78
2023-01-15T13:05:48.761Z,92.13
2023-01-15T13:08:41.724Z,91.62
2023-01-15T13:11:13.398Z,92.66
2023-01-15T13:13:43.014Z,90.76
2023-01-15T13:16:23.128Z,91.76
2023-01-15T13:19:02.212Z,92.78
2023-01-15T13:21:34.341Z,92.25
2023-01-15T13:24:12.926Z,92.78
2023-01-15T13:26:49.187Z,94.49
2023-01-15T13:29:26.207Z,94.89
2023-01-15T13:32:11.482Z,96.94
2023-01-15T13:34:56.767Z,99.22
2023-01-15T13:37:41.413Z,99.71
2023-01-15T13:40:29.577Z,99.21
2023-01-15T13:42:59.962Z,98.44
2023-01-15T13:45:43.927Z,98.50
2023-01-15T13:48:35.163Z,100.00
2023-01-15T13:51:05.244Z,100.00
2023-01-15T13:53:44.773Z,100.00
2023-01-15T13:56:15.883Z,100.00
2023-01-15T13:59:00.381Z,100.00
2023-01-15T14:01:30.365Z,100.00
2023-01-15T14:04:13.647Z,100.00
2023-01-15T14:06:45.882Z,100.00
2023-01-15T14:09:29.880Z,100.00
2023-01-15T14:12:45.407Z,100.00
2023-01-15T14:15:39.323Z,100.00
2023-01-15T14:18:14.963Z,100.00
2023-01-15T14:21:07.916Z,100.00
2023-01-15T14:23:46.449Z,100.00
2023-01-15T14:26:42.456Z,100.00
2023-01-15T14:29:44.452Z,100.00
2023-01-15T14:32:33.168Z,100.00
2023-01-15T14:35:02.701Z,100.00
2023-01-15T14:38:14.074Z,100.00
2023-01-15T14:41:07.411Z,100.00
2023-01-15T14:43:38.053Z,100.00
2023-01-15T14:46:26.671Z,100.00
2023-01-15T14:48:53.885Z,100.00
2023-01-15T14:51:30.603Z,100.00
2023-01-15T14:54:02.604Z,100.00
2023-01-15T14:56:32.764Z,100.00
2023-01-15T14:59:02.611Z,100.00
2023-01-15T15:01:52.319Z,100.00
2023-01-15T15:04:28.585Z,100.00
2023-01-15T15:06:58.607Z,100.00
2023-01-15T15:09:36.818Z,100.00
2023-01-15T15:12:42.601Z,100.00
2023-01-15T15:15:20.522Z,100.00
2023-01-15T15:18:06.442Z,100.00
2023-01-15T15:20:42.762Z,100.00
2023-01-15T15:23:26.128Z,100.00
2023-01-15T15:26:00.522Z,100.00
2023-01-15T15:28:28.295Z,100.00
2023-01-15T15:31:01.754Z,100.00
2023-01-15T15:33:42.379Z,100.00
2023-01-15T15:36:11.513Z,100.00
2023-01-15T15:38:44.923Z,100.00
2023-01-15T15:41:13.565Z,100.00
2023-01-15T15:44:11.173Z,100.00
2023-01-15T15:46:57.388Z,100.00
2023-01-15T15:49:25.013Z,100.00
2023-01-15T15:51:53.961Z,100.00
2023-01-15T15:54:31.646Z,100.00
2023-01-15T15:57:13.562Z,100.00
2023-01-15T15:59:51.486Z,100.00
2023-01-15T16:02:31.683Z,100.00
2023-01-15T16:05:01.646Z,100.00
2023-01-15T16:07:36.486Z,100.00
2023-01-15T16:10:17.088Z,100.00
2023-01-15T16:12:57.087Z,100.00
2023-01-15T16:15:41.755Z,100.00
2023-01-15T16:18:44.768Z,100.00
2023-01-15T16:21:19.819Z,100.00
2023-01-15T16:24:09.079Z,100.00
2023-01-15T16:26:48.364Z,100.00
2023-01-15T16:29:25.008Z,100.00
2023-01-15T16:31:57.250Z,100.00
2023-01-15T16:34:29.808Z,100.00
2023-01-15T16:36:57.802Z,100.00
2023-01-15T16:39:29.417Z,100.00
2023-01-15T16:42:02.765Z,100.00
2023-01-15T16:44:48.132Z,100.00
2023-01-15T16:47:26.025Z,100.00
2023-01-15T16:49:53.660Z,100.00
2023-01-15T16:52:39.083Z,100.00
2023-01-15T16:55:36.561Z,100.00
2023-01-15T16:58:23.544Z,100.00
2023-01-15T17:03:43.069Z,100.00
2023-01-15T17:06:13.300Z,100.00
2023-01-15T17:08:49.203Z,100.00
2023-01-15T17:11:21.555Z,100.00
2023-01-15T17:13:48.869Z,100.00
2023-01-15T17:16:21.738Z,100.00
2023-01-15T17:18:50.701Z,100.00
2023-01-15T17:21:27.818Z,100.00
2023-01-15T17:23:57.197Z,100.00
2023-01-15T17:26:25.990Z,100.00
2023-01-15T17:28:53.333Z,100.00
2023-01-15T17:31:30.690Z,100.00
2023-01-15T17:33:59.992Z,100.00
2023-01-15T17:36:28.461Z,100.00
2023-01-15T17:38:56.064Z,100.00
2023-01-15T17:41:23.658Z,100.00
2023-01-15T17:43:51.098Z,100.00
2023-01-15T17:46:18.639Z,100.00
2023-01-15T17:48:45.825Z,100.00
2023-01-15T17:51:15.125Z,100.00
2023-01-15T17:53:42.545Z,100.00
2023-01-15T17:56:28.323Z,100.00
2023-01-15T17:59:13.978Z,100.00
2023-01-15T18:02:03.037Z,100.00
2023-01-15T18:05:00.780Z,100.00
2023-01-15T18:07:34.075Z,100.00
2023-01-15T18:10:02.241Z,100.00
2023-01-15T18:12:29.420Z,100.00
2023-01-15T18:14:56.380Z,100.00
2023-01-15T18:17:23.517Z,100.00
2023-01-15T18:19:50.466Z,100.00
2023-01-15T18:22:19.035Z,100.00
2023-01-15T18:24:46.863Z,100.00
2023-01-15T18:27:14.059Z,100.00
2023-01-15T18:29:41.342Z,100.00
2023-01-15T18:32:09.350Z,100.00
2023-01-15T18:34:37.418Z,100.00
2023-01-15T18:37:05.097Z,100.00
2023-01-15T18:39:32.383Z,100.00
2023-01-15T18:41:59.429Z,100.00
2023-01-15T18:44:45.183Z,100.00
2023-01-15T18:47:17.828Z,100.00
2023-01-15T18:49:46.713Z,100.00
2023-01-15T18:52:34.779Z,100.00
2023-01-15T18:55:02.864Z,100.00
2023-01-15T18:57:32.802Z,100.00
2023-01-15T18:59:59.988Z,100.00
2023-01-15T19:02:27.110Z,100.00
2023-01-15T19:04:54.308Z,100.00
2023-01-15T19:07:21.898Z,100.00
2023-01-15T19:09:49.100Z,100.00
2023-01-15T19:12:17.299Z,100.00
2023-01-15T19:15:03.294Z,100.00
2023-01-15T19:17:48.952Z,100.00
2023-01-15T19:20:18.219Z,100.00
2023-01-15T19:23:05.308Z,100.00
2023-01-15T19:25:40.466Z,100.00
2023-01-15T19:28:09.425Z,100.00
2023-01-15T19:30:39.200Z,100.00
2023-01-15T19:33:07.841Z,100.00
2023-01-15T19:35:37.903Z,100.00
2023-01-15T19:38:08.459Z,100.00
2023-01-15T19:40:40.825Z,100.00
2023-01-15T19:43:26.389Z,100.00
2023-01-15T19:46:12.259Z,100.00
2023-01-15T19:48:58.139Z,100.00
2023-01-15T19:51:48.647Z,100.00
2023-01-15T19:54:35.671Z,100.00
2023-01-15T19:57:02.869Z,100.00
2023-01-15T19:59:29.739Z,100.00
2023-01-15T20:01:56.926Z,100.00
2023-01-15T20:04:24.389Z,100.00
2023-01-15T20:06:53.803Z,100.00
2023-01-15T20:09:21.017Z,100.00
2023-01-15T20:12:06.859Z,100.00
2023-01-15T20:14:34.142Z,100.00
2023-01-15T20:17:01.186Z,100.00
2023-01-15T20:19:28.316Z,100.00
2023-01-15T20:22:00.136Z,100.00
2023-01-15T20:24:30.776Z,100.00
2023-01-15T20:27:02.618Z,100.00
2023-01-15T20:29:29.737Z,100.00
2023-01-15T20:31:56.809Z,100.00
2023-01-15T20:34:24.065Z,100.00
2023-01-15T20:36:51.020Z,100.00
2023-01-15T20:39:18.546Z,100.00
2023-01-15T20:42:03.901Z,100.00
2023-01-15T20:44:49.578Z,100.00
2023-01-15T20:47:36.343Z,100.00
2023-01-15T20:50:07.054Z,100.00
2023-01-15T20:52:35.022Z,100.00
2023-01-15T20:55:02.973Z,100.00
2023-01-15T20:57:33.578Z,100.00
2023-01-15T21:00:00.625Z,100.00
2023-01-15T21:02:27.647Z,100.00
2023-01-15T21:04:54.617Z,100.00
2023-01-15T21:07:21.666Z,100.00
2023-01-15T21:09:48.708Z,100.00
2023-01-15T21:12:17.540Z,100.00
2023-01-15T21:14:44.628Z,100.00
2023-01-15T21:17:11.582Z,100.00
2023-01-15T21:19:38.701Z,100.00
2023-01-15T21:22:05.912Z,100.00
2023-01-15T21:24:34.715Z,100.00
2023-01-15T21:27:01.827Z,100.00
2023-01-15T21:29:28.948Z,100.00
2023-01-15T21:31:56.179Z,100.00
2023-01-15T21:34:23.344Z,100.00
2023-01-15T21:36:50.377Z,100.00
2023-01-15T21:39:18.216Z,100.00
2023-01-15T21:42:04.141Z,100.00
2023-01-15T21:44:35.993Z,100.00
2023-01-15T21:47:09.421Z,100.00
2023-01-15T21:49:36.698Z,100.00
2023-01-15T21:52:06.777Z,100.00
2023-01-15T21:54:35.102Z,100.00
2023-01-15T21:57:02.460Z,100.00
2023-01-15T21:59:30.069Z,100.00
2023-01-15T22:01:59.075Z,100.00
2023-01-15T22:04:28.400Z,100.00
2023-01-15T22:06:55.823Z,100.00
2023-01-15T22:09:23.508Z,100.00
2023-01-15T22:11:52.761Z,100.00
2023-01-15T22:14:25.108Z,100.00
2023-01-15T22:16:54.397Z,100.00
2023-01-15T22:19:23.828Z,100.00
2023-01-15T22:21:59.192Z,100.00
2023-01-15T22:24:28.218Z,100.00
2023-01-15T22:26:56.072Z,100.00
2023-01-15T22:29:28.544Z,100.00
2023-01-15T22:31:56.059Z,100.00
2023-01-15T22:34:24.379Z,100.00
2023-01-15T22:36:52.867Z,100.00
2023-01-15T22:39:21.196Z,100.00
2023-01-15T22:42:06.839Z,100.00
2023-01-15T22:44:34.708Z,100.00
2023-01-15T22:47:02.780Z,100.00
2023-01-15T22:49:30.376Z,100.00
2023-01-15T22:51:57.342Z,100.00
2023-01-15T22:54:24.544Z,100.00
2023-01-15T22:56:51.550Z,100.00
2023-01-15T22:59:19.267Z,100.00
2023-01-15T23:01:46.907Z,100.00
2023-01-15T23:04:21.870Z,100.00
2023-01-15T23:06:51.584Z,100.00
2023-01-15T23:09:23.515Z,100.00
2023-01-15T23:11:53.977Z,100.00
2023-01-15T23:14:21.899Z,100.00
2023-01-15T23:16:50.218Z,100.00
2023-01-15T23:19:18.390Z,100.00
2023-01-15T23:21:45.711Z,100.00
2023-01-15T23:24:12.627Z,100.00
2023-01-15T23:26:39.864Z,100.00
2023-01-15T23:29:06.951Z,100.00
2023-01-15T23:31:34.783Z,100.00
2023-01-15T23:34:02.007Z,100.00
2023-01-15T23:36:29.170Z,100.00
2023-01-15T23:38:56.301Z,100.00
2023-01-15T23:41:43.267Z,100.00
2023-01-15T23:44:37.897Z,100.00
2023-01-15T23:47:06.652Z,100.00
2023-01-15T23:49:33.980Z,100.00
2023-01-15T23:52:01.918Z,100.00
2023-01-15T23:54:30.140Z,100.00
2023-01-15T23:56:59.196Z,100.00
2023-01-15T23:59:27.188Z,100.00
